Annandale On Hudson, New York
Current Conditions -  °F | °C
As of 5:53 PM on Thursday 27 Nov 2014 (Local Time) from KPOU Reporting Station
Light Snow Light Snow  
Wind Chill:   Ceiling: 2800
Heat Index:   Visibility: 8mi
Dew Point: -2°   Wind: 3mph
Humidity: 88%   Direction: 300°WNW
Pressure: 30.02"   Gusts: NA
Location:  42.01°N, 73.9°W
Report Text: KPOU 272253Z 30003KT 8SM -SN OVC028 00/M02 A3002 RMK AO2 SNB2155E15B21 SLP163 P0000 T00001017
Loading
Personal Weather Stations






























Interactive Weather Map New forecast layout! Learn more

10-Day Weather Forecast

Advertisements
Track Severe Weather on mobile